sensor_id;sensor_type;location;lat;lon;timestamp;pressure;altitude;pressure_sealevel;temperature
68588;BMP180;55560;52.174;20.996;2022-12-18T02:14:37;101979.80;;;-2.60
68588;BMP180;55560;52.174;20.996;2022-12-18T02:17:21;101977.80;;;-2.60
68588;BMP180;55560;52.174;20.996;2022-12-18T02:20:23;101985.60;;;-2.60
68588;BMP180;55560;52.174;20.996;2022-12-18T02:28:40;102003.20;;;-2.60
68588;BMP180;55560;52.174;20.996;2022-12-18T02:31:15;102006.40;;;-2.60
68588;BMP180;55560;52.174;20.996;2022-12-18T02:33:49;102006.80;;;-2.56
68588;BMP180;55560;52.174;20.996;2022-12-18T02:36:19;102001.00;;;-2.50
68588;BMP180;55560;52.174;20.996;2022-12-18T02:38:50;102008.20;;;-2.44
68588;BMP180;55560;52.174;20.996;2022-12-18T02:41:22;102010.00;;;-2.40
68588;BMP180;55560;52.174;20.996;2022-12-18T02:44:06;102014.20;;;-2.36
68588;BMP180;55560;52.174;20.996;2022-12-18T02:46:37;102022.20;;;-2.30
68588;BMP180;55560;52.174;20.996;2022-12-18T02:55:45;102022.00;;;-2.22
68588;BMP180;55560;52.174;20.996;2022-12-18T02:59:00;102021.80;;;-2.30
68588;BMP180;55560;52.174;20.996;2022-12-18T03:01:55;102036.20;;;-2.30
68588;BMP180;55560;52.174;20.996;2022-12-18T03:04:38;102038.80;;;-2.30
68588;BMP180;55560;52.174;20.996;2022-12-18T03:07:18;102041.00;;;-2.38
68588;BMP180;55560;52.174;20.996;2022-12-18T03:09:50;102047.20;;;-2.40
68588;BMP180;55560;52.174;20.996;2022-12-18T03:12:31;102055.40;;;-2.40
68588;BMP180;55560;52.174;20.996;2022-12-18T03:15:24;102064.00;;;-2.40
68588;BMP180;55560;52.174;20.996;2022-12-18T03:18:06;102063.60;;;-2.40
68588;BMP180;55560;52.174;20.996;2022-12-18T03:20:37;102064.40;;;-2.40
68588;BMP180;55560;52.174;20.996;2022-12-18T03:23:14;102062.80;;;-2.40
68588;BMP180;55560;52.174;20.996;2022-12-18T03:25:46;102067.20;;;-2.40
68588;BMP180;55560;52.174;20.996;2022-12-18T03:28:20;102068.60;;;-2.40
68588;BMP180;55560;52.174;20.996;2022-12-18T03:30:57;102073.80;;;-2.44
68588;BMP180;55560;52.174;20.996;2022-12-18T03:33:38;102075.80;;;-2.40
68588;BMP180;55560;52.174;20.996;2022-12-18T03:36:08;102084.60;;;-2.40
68588;BMP180;55560;52.174;20.996;2022-12-18T03:38:38;102088.00;;;-2.40
68588;BMP180;55560;52.174;20.996;2022-12-18T03:41:43;102094.00;;;-2.40
68588;BMP180;55560;52.174;20.996;2022-12-18T03:47:38;102096.40;;;-2.30
68588;BMP180;55560;52.174;20.996;2022-12-18T03:50:29;102098.80;;;-2.30
68588;BMP180;55560;52.174;20.996;2022-12-18T03:53:57;102095.00;;;-2.30
68588;BMP180;55560;52.174;20.996;2022-12-18T03:56:35;102099.60;;;-2.36
68588;BMP180;55560;52.174;20.996;2022-12-18T03:59:05;102102.60;;;-2.40
68588;BMP180;55560;52.174;20.996;2022-12-18T04:01:40;102106.60;;;-2.40
68588;BMP180;55560;52.174;20.996;2022-12-18T04:04:12;102107.20;;;-2.42
68588;BMP180;55560;52.174;20.996;2022-12-18T04:06:43;102114.40;;;-2.50
68588;BMP180;55560;52.174;20.996;2022-12-18T04:09:14;102121.60;;;-2.50
68588;BMP180;55560;52.174;20.996;2022-12-18T04:11:45;102124.60;;;-2.50
68588;BMP180;55560;52.174;20.996;2022-12-18T04:14:14;102128.80;;;-2.52
68588;BMP180;55560;52.174;20.996;2022-12-18T04:16:45;102134.00;;;-2.52
68588;BMP180;55560;52.174;20.996;2022-12-18T04:19:15;102141.20;;;-2.58
68588;BMP180;55560;52.174;20.996;2022-12-18T04:21:44;102140.60;;;-2.60
68588;BMP180;55560;52.174;20.996;2022-12-18T04:24:12;102139.20;;;-2.60
68588;BMP180;55560;52.174;20.996;2022-12-18T04:26:45;102142.00;;;-2.62
68588;BMP180;55560;52.174;20.996;2022-12-18T04:29:18;102151.40;;;-2.70
68588;BMP180;55560;52.174;20.996;2022-12-18T04:31:47;102157.20;;;-2.70
68588;BMP180;55560;52.174;20.996;2022-12-18T04:34:15;102155.20;;;-2.70
68588;BMP180;55560;52.174;20.996;2022-12-18T04:36:48;102160.60;;;-2.78
68588;BMP180;55560;52.174;20.996;2022-12-18T04:39:16;102167.80;;;-2.80
68588;BMP180;55560;52.174;20.996;2022-12-18T04:41:44;102174.80;;;-2.80
68588;BMP180;55560;52.174;20.996;2022-12-18T04:44:13;102174.40;;;-2.80
68588;BMP180;55560;52.174;20.996;2022-12-18T04:46:41;102174.40;;;-2.90
68588;BMP180;55560;52.174;20.996;2022-12-18T04:49:09;102178.00;;;-2.90
68588;BMP180;55560;52.174;20.996;2022-12-18T04:51:38;102171.20;;;-2.90
68588;BMP180;55560;52.174;20.996;2022-12-18T04:54:06;102181.80;;;-2.90
68588;BMP180;55560;52.174;20.996;2022-12-18T04:56:34;102182.00;;;-2.90
68588;BMP180;55560;52.174;20.996;2022-12-18T04:59:02;102185.60;;;-2.98
68588;BMP180;55560;52.174;20.996;2022-12-18T05:01:30;102185.80;;;-3.00
68588;BMP180;55560;52.174;20.996;2022-12-18T05:04:02;102191.80;;;-3.00
68588;BMP180;55560;52.174;20.996;2022-12-18T05:06:31;102192.40;;;-3.10
68588;BMP180;55560;52.174;20.996;2022-12-18T05:08:58;102197.60;;;-3.10
68588;BMP180;55560;52.174;20.996;2022-12-18T05:11:26;102206.20;;;-3.20
68588;BMP180;55560;52.174;20.996;2022-12-18T05:13:56;102221.00;;;-3.20
68588;BMP180;55560;52.174;20.996;2022-12-18T05:16:24;102217.20;;;-3.24
68588;BMP180;55560;52.174;20.996;2022-12-18T05:18:52;102223.60;;;-3.30
68588;BMP180;55560;52.174;20.996;2022-12-18T05:21:19;102219.60;;;-3.30
68588;BMP180;55560;52.174;20.996;2022-12-18T05:23:47;102224.60;;;-3.30
68588;BMP180;55560;52.174;20.996;2022-12-18T05:26:17;102228.60;;;-3.30
68588;BMP180;55560;52.174;20.996;2022-12-18T05:28:45;102234.80;;;-3.40
68588;BMP180;55560;52.174;20.996;2022-12-18T05:31:13;102234.40;;;-3.38
68588;BMP180;55560;52.174;20.996;2022-12-18T05:33:41;102239.80;;;-3.40
68588;BMP180;55560;52.174;20.996;2022-12-18T05:36:10;102242.40;;;-3.30
68588;BMP180;55560;52.174;20.996;2022-12-18T05:38:39;102244.00;;;-3.30
68588;BMP180;55560;52.174;20.996;2022-12-18T05:41:08;102250.80;;;-3.20
68588;BMP180;55560;52.174;20.996;2022-12-18T05:43:38;102251.80;;;-3.20
68588;BMP180;55560;52.174;20.996;2022-12-18T05:46:12;102254.60;;;-3.10
68588;BMP180;55560;52.174;20.996;2022-12-18T05:48:42;102249.80;;;-3.10
68588;BMP180;55560;52.174;20.996;2022-12-18T05:51:16;102250.40;;;-3.10
68588;BMP180;55560;52.174;20.996;2022-12-18T05:53:45;102256.40;;;-3.10
68588;BMP180;55560;52.174;20.996;2022-12-18T05:56:20;102257.40;;;-3.10
68588;BMP180;55560;52.174;20.996;2022-12-18T05:58:52;102254.20;;;-3.06
68588;BMP180;55560;52.174;20.996;2022-12-18T06:01:26;102249.40;;;-3.02
68588;BMP180;55560;52.174;20.996;2022-12-18T06:03:55;102252.60;;;-3.02
68588;BMP180;55560;52.174;20.996;2022-12-18T06:06:26;102259.20;;;-3.00
68588;BMP180;55560;52.174;20.996;2022-12-18T06:08:55;102265.80;;;-3.02
68588;BMP180;55560;52.174;20.996;2022-12-18T06:11:26;102279.40;;;-3.04
68588;BMP180;55560;52.174;20.996;2022-12-18T06:13:55;102290.60;;;-3.02
68588;BMP180;55560;52.174;20.996;2022-12-18T06:16:30;102291.40;;;-3.06
68588;BMP180;55560;52.174;20.996;2022-12-18T06:19:04;102299.00;;;-3.10
68588;BMP180;55560;52.174;20.996;2022-12-18T06:21:34;102299.00;;;-3.10
68588;BMP180;55560;52.174;20.996;2022-12-18T06:24:03;102308.20;;;-3.10
68588;BMP180;55560;52.174;20.996;2022-12-18T06:26:30;102308.40;;;-3.10
68588;BMP180;55560;52.174;20.996;2022-12-18T06:28:58;102309.80;;;-3.10
68588;BMP180;55560;52.174;20.996;2022-12-18T06:31:26;102317.00;;;-3.10
68588;BMP180;55560;52.174;20.996;2022-12-18T06:33:55;102322.00;;;-3.12
68588;BMP180;55560;52.174;20.996;2022-12-18T06:36:23;102327.60;;;-3.20
68588;BMP180;55560;52.174;20.996;2022-12-18T06:38:51;102335.00;;;-3.20
68588;BMP180;55560;52.174;20.996;2022-12-18T06:41:21;102338.60;;;-3.20
68588;BMP180;55560;52.174;20.996;2022-12-18T06:43:49;102341.80;;;-3.24
68588;BMP180;55560;52.174;20.996;2022-12-18T06:46:17;102344.40;;;-3.20
68588;BMP180;55560;52.174;20.996;2022-12-18T06:48:49;102348.60;;;-3.20
68588;BMP180;55560;52.174;20.996;2022-12-18T06:51:20;102352.20;;;-3.20
68588;BMP180;55560;52.174;20.996;2022-12-18T06:53:48;102361.60;;;-3.10
68588;BMP180;55560;52.174;20.996;2022-12-18T06:56:17;102364.20;;;-3.10
68588;BMP180;55560;52.174;20.996;2022-12-18T06:58:45;102363.60;;;-3.10
68588;BMP180;55560;52.174;20.996;2022-12-18T07:01:15;102371.80;;;-3.08
68588;BMP180;55560;52.174;20.996;2022-12-18T07:03:43;102377.00;;;-3.10
68588;BMP180;55560;52.174;20.996;2022-12-18T07:06:15;102380.00;;;-3.04
68588;BMP180;55560;52.174;20.996;2022-12-18T07:08:45;102386.00;;;-3.00
68588;BMP180;55560;52.174;20.996;2022-12-18T07:11:14;102390.40;;;-3.00
68588;BMP180;55560;52.174;20.996;2022-12-18T07:13:42;102393.60;;;-3.00
68588;BMP180;55560;52.174;20.996;2022-12-18T07:16:14;102400.00;;;-3.00
68588;BMP180;55560;52.174;20.996;2022-12-18T07:18:52;102401.20;;;-3.00
68588;BMP180;55560;52.174;20.996;2022-12-18T07:21:20;102404.60;;;-3.00
68588;BMP180;55560;52.174;20.996;2022-12-18T07:23:49;102405.80;;;-3.00
68588;BMP180;55560;52.174;20.996;2022-12-18T07:26:19;102406.00;;;-3.00
68588;BMP180;55560;52.174;20.996;2022-12-18T07:28:48;102411.20;;;-2.96
68588;BMP180;55560;52.174;20.996;2022-12-18T07:31:19;102410.40;;;-2.90
68588;BMP180;55560;52.174;20.996;2022-12-18T07:33:50;102407.80;;;-2.96
68588;BMP180;55560;52.174;20.996;2022-12-18T07:36:19;102410.00;;;-2.92
68588;BMP180;55560;52.174;20.996;2022-12-18T07:38:51;102418.40;;;-2.90
68588;BMP180;55560;52.174;20.996;2022-12-18T07:41:20;102419.00;;;-2.86
68588;BMP180;55560;52.174;20.996;2022-12-18T07:43:49;102419.20;;;-2.80
68588;BMP180;55560;52.174;20.996;2022-12-18T07:46:17;102429.60;;;-2.70
68588;BMP180;55560;52.174;20.996;2022-12-18T07:48:46;102432.40;;;-2.70
68588;BMP180;55560;52.174;20.996;2022-12-18T07:51:18;102432.20;;;-2.60
68588;BMP180;55560;52.174;20.996;2022-12-18T07:53:46;102437.60;;;-2.60
68588;BMP180;55560;52.174;20.996;2022-12-18T07:56:19;102440.00;;;-2.50
68588;BMP180;55560;52.174;20.996;2022-12-18T07:58:58;102449.40;;;-2.50
68588;BMP180;55560;52.174;20.996;2022-12-18T08:01:29;102448.40;;;-2.50
68588;BMP180;55560;52.174;20.996;2022-12-18T08:03:57;102458.80;;;-2.50
68588;BMP180;55560;52.174;20.996;2022-12-18T08:06:26;102461.00;;;-2.50
68588;BMP180;55560;52.174;20.996;2022-12-18T08:08:55;102469.40;;;-2.50
68588;BMP180;55560;52.174;20.996;2022-12-18T08:11:26;102473.60;;;-2.50
68588;BMP180;55560;52.174;20.996;2022-12-18T08:13:55;102476.40;;;-2.40
68588;BMP180;55560;52.174;20.996;2022-12-18T08:16:23;102477.40;;;-2.34
68588;BMP180;55560;52.174;20.996;2022-12-18T08:18:53;102483.40;;;-2.30
68588;BMP180;55560;52.174;20.996;2022-12-18T08:21:25;102485.80;;;-2.30
68588;BMP180;55560;52.174;20.996;2022-12-18T08:23:57;102487.40;;;-2.30
68588;BMP180;55560;52.174;20.996;2022-12-18T08:26:28;102495.40;;;-2.30
68588;BMP180;55560;52.174;20.996;2022-12-18T08:28:58;102502.60;;;-2.30
68588;BMP180;55560;52.174;20.996;2022-12-18T08:31:29;102498.60;;;-2.30
68588;BMP180;55560;52.174;20.996;2022-12-18T08:33:57;102502.20;;;-2.22
68588;BMP180;55560;52.174;20.996;2022-12-18T08:36:25;102510.60;;;-2.20
68588;BMP180;55560;52.174;20.996;2022-12-18T08:38:54;102515.20;;;-2.16
68588;BMP180;55560;52.174;20.996;2022-12-18T08:41:22;102511.40;;;-2.14
68588;BMP180;55560;52.174;20.996;2022-12-18T08:43:50;102517.80;;;-2.10
68588;BMP180;55560;52.174;20.996;2022-12-18T08:46:43;102516.80;;;-2.08
68588;BMP180;55560;52.174;20.996;2022-12-18T08:49:11;102513.40;;;-2.00
68588;BMP180;55560;52.174;20.996;2022-12-18T08:51:39;102514.00;;;-2.00
68588;BMP180;55560;52.174;20.996;2022-12-18T08:54:11;102513.00;;;-2.00
68588;BMP180;55560;52.174;20.996;2022-12-18T08:56:40;102520.40;;;-2.00
68588;BMP180;55560;52.174;20.996;2022-12-18T08:59:08;102522.00;;;-1.92
68588;BMP180;55560;52.174;20.996;2022-12-18T09:01:46;102526.80;;;-1.90
68588;BMP180;55560;52.174;20.996;2022-12-18T09:04:14;102530.80;;;-1.90
68588;BMP180;55560;52.174;20.996;2022-12-18T09:06:42;102530.60;;;-1.90
68588;BMP180;55560;52.174;20.996;2022-12-18T09:09:11;102528.80;;;-1.90
68588;BMP180;55560;52.174;20.996;2022-12-18T09:11:39;102533.60;;;-1.80
68588;BMP180;55560;52.174;20.996;2022-12-18T09:14:08;102539.20;;;-1.80
68588;BMP180;55560;52.174;20.996;2022-12-18T09:16:36;102532.60;;;-1.80
68588;BMP180;55560;52.174;20.996;2022-12-18T09:19:05;102537.80;;;-1.68
68588;BMP180;55560;52.174;20.996;2022-12-18T09:21:35;102539.60;;;-1.70
68588;BMP180;55560;52.174;20.996;2022-12-18T09:24:05;102538.40;;;-1.64
68588;BMP180;55560;52.174;20.996;2022-12-18T09:26:35;102544.20;;;-1.60
68588;BMP180;55560;52.174;20.996;2022-12-18T09:29:04;102549.40;;;-1.60
68588;BMP180;55560;52.174;20.996;2022-12-18T09:31:34;102552.60;;;-1.50
68588;BMP180;55560;52.174;20.996;2022-12-18T09:34:03;102557.40;;;-1.58
68588;BMP180;55560;52.174;20.996;2022-12-18T09:36:31;102551.00;;;-1.60
68588;BMP180;55560;52.174;20.996;2022-12-18T09:38:59;102555.00;;;-1.50
68588;BMP180;55560;52.174;20.996;2022-12-18T09:41:43;102553.80;;;-1.50
68588;BMP180;55560;52.174;20.996;2022-12-18T09:44:32;102557.60;;;-1.54
68588;BMP180;55560;52.174;20.996;2022-12-18T09:47:16;102558.00;;;-1.50
68588;BMP180;55560;52.174;20.996;2022-12-18T09:49:51;102551.40;;;-1.50
68588;BMP180;55560;52.174;20.996;2022-12-18T09:52:37;102553.80;;;-1.40
68588;BMP180;55560;52.174;20.996;2022-12-18T09:55:40;102556.00;;;-1.30
68588;BMP180;55560;52.174;20.996;2022-12-18T09:58:39;102561.80;;;-1.32
68588;BMP180;55560;52.174;20.996;2022-12-18T10:01:14;102562.40;;;-1.40
68588;BMP180;55560;52.174;20.996;2022-12-18T10:03:44;102550.40;;;-1.48
68588;BMP180;55560;52.174;20.996;2022-12-18T10:09:23;102550.80;;;-1.46
68588;BMP180;55560;52.174;20.996;2022-12-18T10:12:17;102564.80;;;-1.42
68588;BMP180;55560;52.174;20.996;2022-12-18T10:15:02;102569.20;;;-1.40
68588;BMP180;55560;52.174;20.996;2022-12-18T10:18:05;102572.80;;;-1.40
68588;BMP180;55560;52.174;20.996;2022-12-18T10:20:50;102573.00;;;-1.50
68588;BMP180;55560;52.174;20.996;2022-12-18T10:26:14;102573.20;;;-1.46
68588;BMP180;55560;52.174;20.996;2022-12-18T10:28:43;102573.80;;;-1.40
68588;BMP180;55560;52.174;20.996;2022-12-18T10:31:19;102577.40;;;-1.30
68588;BMP180;55560;52.174;20.996;2022-12-18T10:33:55;102573.60;;;-1.20
68588;BMP180;55560;52.174;20.996;2022-12-18T10:36:24;102571.60;;;-1.20
68588;BMP180;55560;52.174;20.996;2022-12-18T10:38:52;102576.00;;;-1.20
68588;BMP180;55560;52.174;20.996;2022-12-18T10:44:27;102574.40;;;-1.10
68588;BMP180;55560;52.174;20.996;2022-12-18T10:47:04;102570.80;;;-1.10
68588;BMP180;55560;52.174;20.996;2022-12-18T10:49:46;102571.60;;;-1.00
68588;BMP180;55560;52.174;20.996;2022-12-18T10:52:22;102566.60;;;-1.00
68588;BMP180;55560;52.174;20.996;2022-12-18T10:55:02;102564.20;;;-1.00
68588;BMP180;55560;52.174;20.996;2022-12-18T10:57:37;102563.40;;;-1.00
68588;BMP180;55560;52.174;20.996;2022-12-18T11:00:27;102566.20;;;-1.08
68588;BMP180;55560;52.174;20.996;2022-12-18T11:02:56;102574.80;;;-1.10
68588;BMP180;55560;52.174;20.996;2022-12-18T11:05:29;102577.80;;;-1.10
68588;BMP180;55560;52.174;20.996;2022-12-18T11:07:59;102580.80;;;-1.10
68588;BMP180;55560;52.174;20.996;2022-12-18T11:10:33;102578.00;;;-1.10
68588;BMP180;55560;52.174;20.996;2022-12-18T11:13:30;102574.80;;;-1.00
68588;BMP180;55560;52.174;20.996;2022-12-18T11:15:59;102579.40;;;-0.96
68588;BMP180;55560;52.174;20.996;2022-12-18T11:18:36;102573.00;;;-0.90
68588;BMP180;55560;52.174;20.996;2022-12-18T11:21:09;102570.40;;;-0.80
68588;BMP180;55560;52.174;20.996;2022-12-18T11:23:51;102572.20;;;-0.80
68588;BMP180;55560;52.174;20.996;2022-12-18T11:26:20;102571.00;;;-0.72
68588;BMP180;55560;52.174;20.996;2022-12-18T11:28:52;102586.00;;;-0.70
68588;BMP180;55560;52.174;20.996;2022-12-18T11:31:34;102584.60;;;-0.70
68588;BMP180;55560;52.174;20.996;2022-12-18T11:34:12;102582.20;;;-0.62
68588;BMP180;55560;52.174;20.996;2022-12-18T11:37:00;102592.20;;;-0.70
68588;BMP180;55560;52.174;20.996;2022-12-18T11:39:37;102590.20;;;-0.70
68588;BMP180;55560;52.174;20.996;2022-12-18T11:42:19;102585.60;;;-0.80
68588;BMP180;55560;52.174;20.996;2022-12-18T11:45:14;102582.20;;;-0.80
68588;BMP180;55560;52.174;20.996;2022-12-18T11:48:30;102582.80;;;-0.82
68588;BMP180;55560;52.174;20.996;2022-12-18T11:51:03;102584.00;;;-0.80
68588;BMP180;55560;52.174;20.996;2022-12-18T11:53:32;102589.80;;;-0.70
68588;BMP180;55560;52.174;20.996;2022-12-18T11:56:35;102591.80;;;-0.60
68588;BMP180;55560;52.174;20.996;2022-12-18T12:05:20;102588.00;;;-0.54
68588;BMP180;55560;52.174;20.996;2022-12-18T12:13:52;102583.40;;;-0.42
68588;BMP180;55560;52.174;20.996;2022-12-18T12:25:50;102588.60;;;-0.10
68588;BMP180;55560;52.174;20.996;2022-12-18T12:31:42;102604.20;;;0.00
68588;BMP180;55560;52.174;20.996;2022-12-18T12:34:34;102609.40;;;0.00
68588;BMP180;55560;52.174;20.996;2022-12-18T12:37:16;102614.60;;;0.00
68588;BMP180;55560;52.174;20.996;2022-12-18T12:39:47;102615.00;;;-0.04
68588;BMP180;55560;52.174;20.996;2022-12-18T12:42:29;102618.60;;;-0.10
68588;BMP180;55560;52.174;20.996;2022-12-18T12:45:26;102621.60;;;-0.10
68588;BMP180;55560;52.174;20.996;2022-12-18T12:47:57;102627.40;;;-0.18
68588;BMP180;55560;52.174;20.996;2022-12-18T12:50:25;102625.20;;;-0.20
68588;BMP180;55560;52.174;20.996;2022-12-18T12:52:55;102628.20;;;-0.20
68588;BMP180;55560;52.174;20.996;2022-12-18T12:55:28;102629.20;;;-0.20
68588;BMP180;55560;52.174;20.996;2022-12-18T13:06:47;102654.80;;;-0.30
68588;BMP180;55560;52.174;20.996;2022-12-18T13:09:17;102666.20;;;-0.40
68588;BMP180;55560;52.174;20.996;2022-12-18T13:11:47;102664.40;;;-0.40
68588;BMP180;55560;52.174;20.996;2022-12-18T13:14:40;102671.00;;;-0.50
68588;BMP180;55560;52.174;20.996;2022-12-18T13:17:28;102668.80;;;-0.50
68588;BMP180;55560;52.174;20.996;2022-12-18T13:20:11;102669.80;;;-0.56
68588;BMP180;55560;52.174;20.996;2022-12-18T13:22:46;102677.20;;;-0.52
68588;BMP180;55560;52.174;20.996;2022-12-18T13:25:36;102680.40;;;-0.60
68588;BMP180;55560;52.174;20.996;2022-12-18T13:28:17;102686.00;;;-0.70
68588;BMP180;55560;52.174;20.996;2022-12-18T13:30:56;102682.60;;;-0.70
68588;BMP180;55560;52.174;20.996;2022-12-18T13:36:16;102675.80;;;-0.68
68588;BMP180;55560;52.174;20.996;2022-12-18T13:38:44;102679.60;;;-0.70
68588;BMP180;55560;52.174;20.996;2022-12-18T13:41:26;102680.20;;;-0.70
68588;BMP180;55560;52.174;20.996;2022-12-18T13:43:55;102684.80;;;-0.76
68588;BMP180;55560;52.174;20.996;2022-12-18T13:46:42;102692.80;;;-0.70
68588;BMP180;55560;52.174;20.996;2022-12-18T13:51:55;102694.20;;;-0.60
68588;BMP180;55560;52.174;20.996;2022-12-18T13:54:40;102696.80;;;-0.64
68588;BMP180;55560;52.174;20.996;2022-12-18T13:57:36;102693.00;;;-0.74
68588;BMP180;55560;52.174;20.996;2022-12-18T14:00:26;102687.80;;;-0.80
68588;BMP180;55560;52.174;20.996;2022-12-18T14:02:57;102696.60;;;-0.82
68588;BMP180;55560;52.174;20.996;2022-12-18T14:05:30;102702.40;;;-0.90
68588;BMP180;55560;52.174;20.996;2022-12-18T14:08:13;102705.60;;;-0.98
68588;BMP180;55560;52.174;20.996;2022-12-18T14:10:45;102711.80;;;-1.00
68588;BMP180;55560;52.174;20.996;2022-12-18T14:13:36;102709.00;;;-1.10
68588;BMP180;55560;52.174;20.996;2022-12-18T14:16:05;102707.00;;;-1.12
68588;BMP180;55560;52.174;20.996;2022-12-18T14:18:43;102712.40;;;-1.10
68588;BMP180;55560;52.174;20.996;2022-12-18T14:21:37;102718.20;;;-1.14
68588;BMP180;55560;52.174;20.996;2022-12-18T14:24:14;102723.40;;;-1.20
68588;BMP180;55560;52.174;20.996;2022-12-18T14:26:49;102725.80;;;-1.30
68588;BMP180;55560;52.174;20.996;2022-12-18T14:29:29;102727.40;;;-1.30
68588;BMP180;55560;52.174;20.996;2022-12-18T14:32:14;102720.80;;;-1.30
68588;BMP180;55560;52.174;20.996;2022-12-18T14:34:50;102715.40;;;-1.30
68588;BMP180;55560;52.174;20.996;2022-12-18T14:37:26;102714.20;;;-1.30
68588;BMP180;55560;52.174;20.996;2022-12-18T14:39:59;102722.00;;;-1.30
68588;BMP180;55560;52.174;20.996;2022-12-18T14:42:37;102721.60;;;-1.30
68588;BMP180;55560;52.174;20.996;2022-12-18T14:45:36;102725.60;;;-1.30
68588;BMP180;55560;52.174;20.996;2022-12-18T14:48:25;102724.80;;;-1.30
68588;BMP180;55560;52.174;20.996;2022-12-18T14:53:53;102737.80;;;-1.40
68588;BMP180;55560;52.174;20.996;2022-12-18T14:56:29;102740.20;;;-1.30
68588;BMP180;55560;52.174;20.996;2022-12-18T14:59:02;102746.00;;;-1.30
68588;BMP180;55560;52.174;20.996;2022-12-18T15:01:37;102742.40;;;-1.30
68588;BMP180;55560;52.174;20.996;2022-12-18T15:07:26;102737.80;;;-1.20
68588;BMP180;55560;52.174;20.996;2022-12-18T15:12:47;102750.20;;;-1.30
68588;BMP180;55560;52.174;20.996;2022-12-18T15:20:53;102754.40;;;-1.30
68588;BMP180;55560;52.174;20.996;2022-12-18T15:26:17;102748.60;;;-1.22
68588;BMP180;55560;52.174;20.996;2022-12-18T15:28:51;102750.20;;;-1.30
68588;BMP180;55560;52.174;20.996;2022-12-18T15:31:34;102750.00;;;-1.30
68588;BMP180;55560;52.174;20.996;2022-12-18T15:34:13;102748.20;;;-1.24
68588;BMP180;55560;52.174;20.996;2022-12-18T15:36:42;102750.60;;;-1.20
68588;BMP180;55560;52.174;20.996;2022-12-18T15:39:12;102760.20;;;-1.24
68588;BMP180;55560;52.174;20.996;2022-12-18T15:41:40;102764.00;;;-1.24
68588;BMP180;55560;52.174;20.996;2022-12-18T15:44:28;102762.00;;;-1.32
68588;BMP180;55560;52.174;20.996;2022-12-18T15:46:57;102769.40;;;-1.40
68588;BMP180;55560;52.174;20.996;2022-12-18T15:49:25;102771.60;;;-1.40
68588;BMP180;55560;52.174;20.996;2022-12-18T15:51:59;102771.00;;;-1.40
68588;BMP180;55560;52.174;20.996;2022-12-18T15:54:29;102776.40;;;-1.40
68588;BMP180;55560;52.174;20.996;2022-12-18T15:57:15;102775.80;;;-1.46
68588;BMP180;55560;52.174;20.996;2022-12-18T15:59:55;102776.20;;;-1.50
68588;BMP180;55560;52.174;20.996;2022-12-18T16:02:26;102772.60;;;-1.50
68588;BMP180;55560;52.174;20.996;2022-12-18T16:04:56;102773.40;;;-1.42
68588;BMP180;55560;52.174;20.996;2022-12-18T16:07:24;102777.40;;;-1.40
68588;BMP180;55560;52.174;20.996;2022-12-18T16:09:56;102776.00;;;-1.40
68588;BMP180;55560;52.174;20.996;2022-12-18T16:12:29;102776.40;;;-1.40
68588;BMP180;55560;52.174;20.996;2022-12-18T16:14:57;102774.80;;;-1.40
68588;BMP180;55560;52.174;20.996;2022-12-18T16:17:25;102778.60;;;-1.40
68588;BMP180;55560;52.174;20.996;2022-12-18T16:19:53;102783.00;;;-1.40
68588;BMP180;55560;52.174;20.996;2022-12-18T16:22:26;102785.00;;;-1.46
68588;BMP180;55560;52.174;20.996;2022-12-18T16:24:56;102777.40;;;-1.56
68588;BMP180;55560;52.174;20.996;2022-12-18T16:27:25;102778.00;;;-1.60
68588;BMP180;55560;52.174;20.996;2022-12-18T16:29:53;102779.20;;;-1.60
68588;BMP180;55560;52.174;20.996;2022-12-18T16:32:22;102773.80;;;-1.60
68588;BMP180;55560;52.174;20.996;2022-12-18T16:34:51;102774.40;;;-1.60
68588;BMP180;55560;52.174;20.996;2022-12-18T16:37:19;102778.60;;;-1.62
68588;BMP180;55560;52.174;20.996;2022-12-18T16:39:47;102780.40;;;-1.70
68588;BMP180;55560;52.174;20.996;2022-12-18T16:42:18;102781.20;;;-1.70
68588;BMP180;55560;52.174;20.996;2022-12-18T16:44:48;102781.80;;;-1.70
68588;BMP180;55560;52.174;20.996;2022-12-18T16:47:18;102788.80;;;-1.70
68588;BMP180;55560;52.174;20.996;2022-12-18T16:49:46;102779.80;;;-1.70
68588;BMP180;55560;52.174;20.996;2022-12-18T16:52:19;102782.40;;;-1.70
68588;BMP180;55560;52.174;20.996;2022-12-18T16:54:47;102787.40;;;-1.70
68588;BMP180;55560;52.174;20.996;2022-12-18T16:57:18;102786.20;;;-1.70
68588;BMP180;55560;52.174;20.996;2022-12-18T16:59:50;102792.40;;;-1.70
68588;BMP180;55560;52.174;20.996;2022-12-18T17:02:22;102804.00;;;-1.70
68588;BMP180;55560;52.174;20.996;2022-12-18T17:04:55;102814.00;;;-1.78
68588;BMP180;55560;52.174;20.996;2022-12-18T17:07:25;102819.40;;;-1.80
68588;BMP180;55560;52.174;20.996;2022-12-18T17:09:53;102813.80;;;-1.78
68588;BMP180;55560;52.174;20.996;2022-12-18T17:12:21;102814.80;;;-1.72
68588;BMP180;55560;52.174;20.996;2022-12-18T17:14:49;102811.80;;;-1.70
68588;BMP180;55560;52.174;20.996;2022-12-18T17:17:19;102815.00;;;-1.60
68588;BMP180;55560;52.174;20.996;2022-12-18T17:19:51;102814.60;;;-1.60
68588;BMP180;55560;52.174;20.996;2022-12-18T17:22:21;102817.80;;;-1.60
68588;BMP180;55560;52.174;20.996;2022-12-18T17:24:50;102816.80;;;-1.64
68588;BMP180;55560;52.174;20.996;2022-12-18T17:27:18;102807.80;;;-1.70
68588;BMP180;55560;52.174;20.996;2022-12-18T17:29:47;102811.40;;;-1.80
68588;BMP180;55560;52.174;20.996;2022-12-18T17:32:16;102814.20;;;-1.76
68588;BMP180;55560;52.174;20.996;2022-12-18T17:34:44;102817.60;;;-1.80
68588;BMP180;55560;52.174;20.996;2022-12-18T17:37:13;102814.00;;;-1.80
68588;BMP180;55560;52.174;20.996;2022-12-18T17:39:41;102813.60;;;-1.80
68588;BMP180;55560;52.174;20.996;2022-12-18T17:42:09;102812.20;;;-1.90
68588;BMP180;55560;52.174;20.996;2022-12-18T17:44:43;102811.80;;;-1.90
68588;BMP180;55560;52.174;20.996;2022-12-18T17:47:12;102822.00;;;-1.90
68588;BMP180;55560;52.174;20.996;2022-12-18T17:49:42;102820.40;;;-1.90
68588;BMP180;55560;52.174;20.996;2022-12-18T17:52:10;102817.20;;;-1.90
68588;BMP180;55560;52.174;20.996;2022-12-18T17:54:38;102828.60;;;-1.82
68588;BMP180;55560;52.174;20.996;2022-12-18T17:57:08;102832.60;;;-1.80